Airfield :
LOGIN :

Register | Disclaimer

   EN    FR    IT 

 










Legend :    VFR   Marginal VFR   IFR   Intensive IFR   Very Intensive IFR
Visi :
Ceiling :
>= 8 km
>= 3000ft
5 to 8 km
1000 to 3000 ft
1500m to 5 km
500 to 1000 ft
800 to 1500m
200 to 500 ft
< 800m
< 200 ft
Symbols :   Thunderstorms  Fog  Heavy snow  Heavy precipitations  Wind > 20 kt
SIGMETs :     Misc.  Thunderstorms  Icing  Turbulence  Mountain Waves  Volcanic Ashes







- Airport Elevation : 72 ft
- IATA code : UDE


EHVK - Volkel Airbase

CURRENT METAR :
  • 222155Z AUTO 27008KT 240V310 9999 BKN022 OVC025 19/15 Q1012 WHT

EXPIRED METARs :
  • 222143Z AUTO 27009KT 240V320 9999 FEW021 OVC025 19/15 Q1012 BLU
  • 222125Z AUTO 27010KT 240V310 9999 BKN022 OVC025 19/15 Q1012 WHT
  • 222114Z AUTO 27009KT 240V320 9999 BKN022 OVC025 19/15 Q1012 WHT
  • 222110Z AUTO 27009KT 230V300 9999 SCT022 OVC026 19/15 Q1012 WHT
  • 222055Z AUTO 27010KT 230V300 9999 BKN022 OVC025 20/15 Q1012 WHT
  • 222042Z AUTO 27012KT 230V330 9999 BKN023 BKN027 20/15 Q1011 WHT
  • 222025Z AUTO 28010KT 240V300 9999 FEW025 BKN037 BKN043 20/15 Q1011 BLU
  • 221955Z AUTO 27010KT 250V320 9999 FEW030 OVC038 20/15 Q1011 BLU
  • 221925Z AUTO 27014KT 250V320 9999 OVC045 21/16 Q1010 BLU
  • 221855Z AUTO 27013G24KT 230V310 9999 FEW039 21/16 Q1010 BLU

TAF TAF EHVK
Valid from the 22 at 13:00 until the 23 at 01:00 UTC


221234Z 2213/2301 26012G25KT CAVOK
TEMPO 2215/2220 4000 SHRA SCT070CB
PROB40
TEMPO 2215/2220 3000 29015G30KT TSRAGR SCT060CB
BECMG 2220/2223 27007KT
No reported NOTAMs for that airfield.



MET'MAP, your aeronautical weather chart ! - Copyright ORBIFLY December 2007 - Disclaimer

ORBIFLY MET'MAP TEAM :

Programming & Development : Alexandra Zaïnal
Concept & Development : Baudouin d'Aumeries
Co-Development & Prog : Marc-Olivier Méhu
Technical & hardware support : Manuel Goepfert

Contact : metmap@orbifly.com




SOURCES & CREDITS :

   NOAA